FGBT

Bata Airport

Equatorial Guinea
METAR FGBT 250800Z 00000KT 8000 TS SCT010 FEW020CB 24/24 Q1014
Observed Flight Rules
Apr-25 @ 08:00 UTC (43 minutes ago) Marginal Visual Flight Rules
Visibility Clouds Conditions
7,998 meters
  • Scattered at 1,000' AGL
  • Few at 2,000' AGL
  • Thunderstorm
Temperatures Readings
Current 24°C / 75°F
Dewpoint 24°C / 75°F
Humidity 100%
Altimeter 29.94" Hg
Pressure 1014 hPa
Elevation 8
METAR FGBT 250800Z 00000KT 8000 TS SCT010 FEW020CB 24/24 Q1014
Observed Flight Rules
Apr-25 @ 08:00 UTC
(43 minutes ago)
MVFR
Clouds
  • Scattered at 1,000' AGL
  • Few at 2,000' AGL
Conditions
  • Thunderstorm
Temperature Dewpoint
24°C / 75°F 24°C / 75°F
Humidity Altimeter Pressure
100% 29.94" Hg 1014 hPa